Time;durP1;ratioP1;P1;durP2;ratioP2;P2;SDS_P1;SDS_P2;PMS_P1;PMS_P2;Temp;Humidity;BMP_temperature;BMP_pressure;BME280_temperature;BME280_humidity;BME280_pressure;Samples;Min_cycle;Max_cycle;Signal;HPM_P1;HPM_P2
2023/08/17 00:00:37;;;;;;;2.67;1.00;;;17.20;99.90;;;;;;5064179;28;20056;-35
2023/08/17 00:03:03;;;;;;;4.63;0.88;;;17.30;99.90;;;;;;5062321;28;20044;-34
2023/08/17 00:05:29;;;;;;;3.58;0.90;;;17.30;99.90;;;;;;5066174;28;20098;-34
2023/08/17 00:07:55;;;;;;;3.00;1.20;;;17.30;99.90;;;;;;5062762;28;20525;-34
2023/08/17 00:10:21;;;;;;;1.85;0.90;;;17.30;99.90;;;;;;5059713;28;20837;-33
2023/08/17 00:12:46;;;;;;;3.20;1.00;;;17.30;99.90;;;;;;5063871;28;20083;-35
2023/08/17 00:15:12;;;;;;;2.97;1.00;;;17.30;99.90;;;;;;5063942;28;20502;-34
2023/08/17 00:17:38;;;;;;;2.38;0.90;;;17.30;99.90;;;;;;5077225;28;20047;-34
2023/08/17 00:20:05;;;;;;;3.20;0.95;;;17.30;99.90;;;;;;5060887;28;20044;-35
2023/08/17 00:22:30;;;;;;;3.15;0.90;;;17.30;99.90;;;;;;5040733;28;20511;-34
2023/08/17 00:24:56;;;;;;;3.28;0.95;;;17.30;99.90;;;;;;5059856;28;20069;-34
2023/08/17 00:27:22;;;;;;;3.38;1.08;;;17.20;99.90;;;;;;5061792;28;20148;-34
2023/08/17 00:29:48;;;;;;;2.47;0.98;;;17.20;99.90;;;;;;5057093;28;20136;-34
2023/08/17 00:32:13;;;;;;;2.72;0.85;;;17.20;99.90;;;;;;5051967;28;20125;-34
2023/08/17 00:34:39;;;;;;;2.42;1.10;;;17.20;99.90;;;;;;5065891;28;20066;-34
2023/08/17 00:37:05;;;;;;;5.72;1.00;;;17.20;99.90;;;;;;5065078;28;20087;-34
2023/08/17 00:39:30;;;;;;;3.25;0.80;;;17.20;99.90;;;;;;5058240;28;20494;-34
2023/08/17 00:41:56;;;;;;;3.40;1.10;;;17.20;99.90;;;;;;5055708;28;20040;-34
2023/08/17 00:44:21;;;;;;;4.78;0.93;;;17.20;99.90;;;;;;5047139;28;20384;-34
2023/08/17 00:46:47;;;;;;;3.95;1.23;;;17.10;99.90;;;;;;5059228;28;20522;-34
2023/08/17 00:49:13;;;;;;;2.53;0.95;;;17.10;99.90;;;;;;5059986;28;20113;-36
2023/08/17 00:51:39;;;;;;;3.55;0.90;;;17.10;99.90;;;;;;5058064;28;20048;-34
2023/08/17 00:54:05;;;;;;;2.00;0.95;;;17.10;99.90;;;;;;5064390;28;20052;-34
2023/08/17 00:56:31;;;;;;;1.70;0.68;;;17.10;99.90;;;;;;5064903;28;20048;-34
2023/08/17 00:58:57;;;;;;;3.08;0.90;;;17.00;99.90;;;;;;5054388;28;20065;-34
2023/08/17 01:01:23;;;;;;;2.63;1.00;;;17.00;99.90;;;;;;5064456;28;20406;-35
2023/08/17 01:03:48;;;;;;;2.20;0.85;;;17.00;99.90;;;;;;5059718;28;20044;-34
2023/08/17 01:06:14;;;;;;;3.75;0.80;;;17.00;99.90;;;;;;5056787;28;20103;-34
2023/08/17 01:08:42;;;;;;;2.03;0.60;;;17.00;99.90;;;;;;5052800;28;20067;-34
2023/08/17 01:11:27;;;;;;;4.30;1.25;;;17.00;99.90;;;;;;5066993;28;20127;-34
2023/08/17 01:14:32;;;;;;;3.33;0.75;;;16.90;99.90;;;;;;5061102;28;20130;-34
2023/08/17 01:17:06;;;;;;;2.33;0.90;;;16.90;99.90;;;;;;5063237;28;20056;-34
2023/08/17 01:19:32;;;;;;;3.80;0.95;;;16.90;99.90;;;;;;5059918;28;20056;-34
2023/08/17 01:22:03;;;;;;;5.20;1.20;;;16.80;99.90;;;;;;5043033;28;20056;-34
2023/08/17 01:24:29;;;;;;;4.03;0.70;;;16.80;99.90;;;;;;5062857;28;20502;-34
2023/08/17 01:26:55;;;;;;;1.83;0.70;;;16.80;99.90;;;;;;5059275;28;20068;-34
2023/08/17 01:29:21;;;;;;;4.68;0.80;;;16.70;99.90;;;;;;5062243;28;20527;-34
2023/08/17 01:32:08;;;;;;;4.45;0.90;;;16.70;99.90;;;;;;5062339;28;20052;-34
2023/08/17 01:34:40;;;;;;;3.15;0.90;;;16.70;99.90;;;;;;5059838;28;20053;-34
2023/08/17 01:37:10;;;;;;;2.92;0.90;;;16.60;99.90;;;;;;5064073;28;20075;-34
2023/08/17 01:39:39;;;;;;;3.03;1.00;;;16.70;99.90;;;;;;5062928;28;20048;-34
2023/08/17 01:42:06;;;;;;;2.47;0.80;;;16.60;99.90;;;;;;5065103;28;20045;-34
2023/08/17 01:44:35;;;;;;;4.15;0.98;;;16.60;99.90;;;;;;5066803;28;20494;-34
2023/08/17 01:47:01;;;;;;;2.80;0.90;;;16.60;99.90;;;;;;5064902;28;20126;-33
2023/08/17 01:49:26;;;;;;;2.17;0.60;;;16.60;99.90;;;;;;5062516;28;20390;-34
2023/08/17 01:51:52;;;;;;;4.18;0.88;;;16.60;99.90;;;;;;5066799;28;20139;-34
2023/08/17 01:54:18;;;;;;;4.97;1.20;;;16.60;99.90;;;;;;5067071;28;20056;-34
2023/08/17 01:56:44;;;;;;;2.92;0.82;;;16.60;99.90;;;;;;5066197;28;20063;-34
2023/08/17 01:59:09;;;;;;;3.10;0.70;;;16.60;99.90;;;;;;5066450;28;20052;-35
2023/08/17 02:01:35;;;;;;;3.22;0.80;;;16.60;99.90;;;;;;5054589;28;20566;-34
2023/08/17 02:04:02;;;;;;;5.07;0.98;;;16.60;99.90;;;;;;5065371;28;20417;-34
2023/08/17 02:06:28;;;;;;;3.20;0.70;;;16.60;99.90;;;;;;5065858;28;20481;-34
2023/08/17 02:08:54;;;;;;;1.63;0.80;;;16.60;99.90;;;;;;5057373;28;20480;-34
2023/08/17 02:11:20;;;;;;;3.10;0.75;;;16.50;99.90;;;;;;5060246;28;20048;-34
2023/08/17 02:13:46;;;;;;;1.58;0.57;;;16.60;99.90;;;;;;5060268;28;20060;-34
2023/08/17 02:16:11;;;;;;;2.20;0.68;;;16.50;99.90;;;;;;5069494;28;20146;-34
2023/08/17 02:18:37;;;;;;;2.55;0.80;;;16.50;99.90;;;;;;5063425;28;20592;-34
2023/08/17 02:21:03;;;;;;;2.85;0.70;;;16.50;99.90;;;;;;5069152;28;20048;-34
2023/08/17 02:23:29;;;;;;;2.67;1.00;;;16.40;99.90;;;;;;5065500;28;20095;-34
2023/08/17 02:25:54;;;;;;;2.85;0.70;;;16.40;99.90;;;;;;5049440;28;20558;-34
2023/08/17 02:28:20;;;;;;;3.00;0.68;;;16.40;99.90;;;;;;5043634;28;20052;-34
2023/08/17 02:30:47;;;;;;;2.38;0.80;;;16.30;99.90;;;;;;5064930;28;20131;-34
2023/08/17 02:33:13;;;;;;;1.20;0.50;;;16.40;99.90;;;;;;5064892;28;20076;-34
2023/08/17 02:35:39;;;;;;;2.85;0.80;;;16.40;99.90;;;;;;5065096;28;20133;-34
2023/08/17 02:38:04;;;;;;;2.03;0.80;;;16.40;99.90;;;;;;5064299;28;20052;-34
2023/08/17 02:40:30;;;;;;;1.45;0.68;;;16.40;99.90;;;;;;5066302;28;20078;-34
2023/08/17 02:42:55;;;;;;;1.70;0.77;;;16.40;99.90;;;;;;5064700;28;20083;-34
2023/08/17 02:45:21;;;;;;;3.65;0.88;;;16.40;99.90;;;;;;5068555;28;20167;-34
2023/08/17 02:47:47;;;;;;;4.00;0.90;;;16.40;99.90;;;;;;5063655;28;20094;-34
2023/08/17 02:50:13;;;;;;;3.00;0.80;;;16.40;99.90;;;;;;5065941;28;20056;-34
2023/08/17 02:52:39;;;;;;;3.53;0.98;;;16.40;99.90;;;;;;5063584;28;20064;-34
2023/08/17 02:55:05;;;;;;;2.70;0.88;;;16.40;99.90;;;;;;5068399;28;20040;-34
2023/08/17 02:57:30;;;;;;;2.65;1.02;;;16.40;99.90;;;;;;5067229;28;20055;-34
2023/08/17 02:59:56;;;;;;;1.77;0.80;;;16.40;99.90;;;;;;5060936;28;20444;-34
2023/08/17 03:02:22;;;;;;;1.63;0.80;;;16.40;99.90;;;;;;5056016;28;20125;-34
2023/08/17 03:04:47;;;;;;;4.13;0.85;;;16.40;99.90;;;;;;5063639;28;20464;-34
2023/08/17 03:07:13;;;;;;;1.80;0.90;;;16.50;99.90;;;;;;5062628;28;20503;-34
2023/08/17 03:09:39;;;;;;;2.15;0.60;;;16.50;99.90;;;;;;5060414;28;20071;-33
2023/08/17 03:12:07;;;;;;;3.40;0.80;;;16.50;99.90;;;;;;5064812;28;20746;-34
2023/08/17 03:14:33;;;;;;;1.73;0.75;;;16.50;99.90;;;;;;5067168;28;20090;-34
2023/08/17 03:16:59;;;;;;;3.30;0.75;;;16.50;99.90;;;;;;5048473;28;20068;-34
2023/08/17 03:19:24;;;;;;;2.80;1.08;;;16.50;99.90;;;;;;5051205;28;20033;-34
2023/08/17 03:21:50;;;;;;;2.28;0.70;;;16.50;99.90;;;;;;5057655;28;20493;-34
2023/08/17 03:24:16;;;;;;;2.03;0.65;;;16.50;99.90;;;;;;5063371;28;20072;-34
2023/08/17 03:26:41;;;;;;;3.83;0.80;;;16.50;99.90;;;;;;5060790;28;20140;-34
2023/08/17 03:29:08;;;;;;;2.70;0.65;;;16.50;99.90;;;;;;5062210;28;20079;-34
2023/08/17 03:31:34;;;;;;;2.15;0.85;;;16.50;99.90;;;;;;5064091;28;20105;-34
2023/08/17 03:34:00;;;;;;;2.15;0.90;;;16.50;99.90;;;;;;5060301;28;20418;-34
2023/08/17 03:36:25;;;;;;;1.50;0.68;;;16.50;99.90;;;;;;5062175;28;20136;-34
2023/08/17 03:38:51;;;;;;;3.05;0.95;;;16.50;99.90;;;;;;5061796;28;20139;-34
2023/08/17 03:41:17;;;;;;;4.28;0.80;;;16.50;99.90;;;;;;5067521;28;20490;-34
2023/08/17 03:43:42;;;;;;;2.88;0.77;;;16.40;99.90;;;;;;5065898;28;20051;-34
2023/08/17 03:46:08;;;;;;;3.53;0.80;;;16.40;99.90;;;;;;5062247;28;20060;-34
2023/08/17 03:48:34;;;;;;;2.92;1.08;;;16.40;99.90;;;;;;5062880;28;20045;-34
2023/08/17 03:51:01;;;;;;;3.15;0.80;;;16.30;99.90;;;;;;5059586;28;20464;-34
2023/08/17 03:53:27;;;;;;;3.63;1.15;;;16.30;99.90;;;;;;5060221;28;20094;-34
2023/08/17 03:55:52;;;;;;;2.50;1.00;;;16.30;99.90;;;;;;5062409;28;20049;-34
2023/08/17 03:58:18;;;;;;;4.68;1.30;;;16.30;99.90;;;;;;5058048;28;20056;-34
2023/08/17 04:00:50;;;;;;;2.03;0.80;;;16.30;99.90;;;;;;5060509;28;20063;-34
2023/08/17 04:03:16;;;;;;;3.30;0.90;;;16.30;99.90;;;;;;5059167;28;20414;-34
2023/08/17 04:05:42;;;;;;;4.70;1.30;;;16.30;99.90;;;;;;5064895;28;20060;-34
2023/08/17 04:08:08;;;;;;;3.78;1.20;;;16.30;99.90;;;;;;5058932;28;20110;-34
2023/08/17 04:10:34;;;;;;;2.95;0.90;;;16.30;99.90;;;;;;5060459;28;20076;-34
2023/08/17 04:13:00;;;;;;;2.20;1.02;;;16.30;99.90;;;;;;5061060;28;20163;-34
2023/08/17 04:15:26;;;;;;;3.28;1.15;;;16.30;99.90;;;;;;5064929;28;20052;-34
2023/08/17 04:17:51;;;;;;;3.15;1.10;;;16.30;99.90;;;;;;5065446;28;20048;-34
2023/08/17 04:20:18;;;;;;;3.88;1.08;;;16.30;99.90;;;;;;5049729;28;20056;-34
2023/08/17 04:22:44;;;;;;;4.20;1.00;;;16.30;99.90;;;;;;5060299;28;20049;-34
2023/08/17 04:25:10;;;;;;;4.65;1.10;;;16.30;99.90;;;;;;5060683;28;20517;-34
2023/08/17 04:27:36;;;;;;;6.78;1.90;;;16.30;99.90;;;;;;5045654;28;20044;-34
2023/08/17 04:30:02;;;;;;;3.80;0.98;;;16.30;99.90;;;;;;5063166;28;20055;-34
2023/08/17 04:32:28;;;;;;;4.18;1.38;;;16.30;99.90;;;;;;5078154;28;20045;-34
2023/08/17 04:34:53;;;;;;;3.72;1.00;;;16.30;99.90;;;;;;5064693;28;20044;-34
2023/08/17 04:37:19;;;;;;;6.55;1.35;;;16.30;99.90;;;;;;5063989;28;20056;-34
2023/08/17 04:39:45;;;;;;;4.03;1.25;;;16.30;99.90;;;;;;5059771;28;20049;-34
2023/08/17 04:42:10;;;;;;;4.13;1.10;;;16.30;99.90;;;;;;5052783;28;20414;-34
2023/08/17 04:44:36;;;;;;;4.00;1.13;;;16.30;99.90;;;;;;5065800;28;20044;-34
2023/08/17 04:47:02;;;;;;;3.40;1.45;;;16.30;99.90;;;;;;5066373;28;20170;-33
2023/08/17 04:49:28;;;;;;;3.65;1.23;;;16.30;99.90;;;;;;5050327;28;20532;-34
2023/08/17 04:51:53;;;;;;;3.38;1.27;;;16.30;99.90;;;;;;5062797;28;20502;-34
2023/08/17 04:54:19;;;;;;;3.25;1.15;;;16.40;99.90;;;;;;5055484;28;20052;-34
2023/08/17 04:56:45;;;;;;;5.03;1.02;;;16.40;99.90;;;;;;5062430;28;20126;-34
2023/08/17 04:59:14;;;;;;;4.03;1.38;;;16.30;99.90;;;;;;5057388;28;20875;-34
2023/08/17 05:01:39;;;;;;;4.20;1.13;;;16.40;99.90;;;;;;5059361;28;20056;-34
2023/08/17 05:04:05;;;;;;;3.90;1.23;;;16.40;99.90;;;;;;5065440;28;20445;-34
2023/08/17 05:06:31;;;;;;;2.28;1.08;;;16.40;99.90;;;;;;5061667;28;20059;-34
2023/08/17 05:08:57;;;;;;;5.22;1.20;;;16.40;99.90;;;;;;5061761;28;20448;-34
2023/08/17 05:11:23;;;;;;;5.82;1.33;;;16.40;99.90;;;;;;5064258;28;20076;-34
2023/08/17 05:13:49;;;;;;;3.42;0.98;;;16.40;99.90;;;;;;5069047;28;20075;-34
2023/08/17 05:16:15;;;;;;;3.72;1.10;;;16.50;99.90;;;;;;5067920;28;20049;-34
2023/08/17 05:18:40;;;;;;;4.88;1.23;;;16.50;99.90;;;;;;5068020;28;20060;-34
2023/08/17 05:21:06;;;;;;;5.03;1.02;;;16.40;99.90;;;;;;5067644;28;20149;-34
2023/08/17 05:23:32;;;;;;;5.43;1.00;;;16.50;99.90;;;;;;5056222;28;20446;-34
2023/08/17 05:25:58;;;;;;;2.78;0.98;;;16.50;99.90;;;;;;5068595;28;20583;-34
2023/08/17 05:28:24;;;;;;;1.95;0.75;;;16.60;99.90;;;;;;5065837;28;20151;-34
2023/08/17 05:30:50;;;;;;;4.53;1.15;;;16.60;99.90;;;;;;5055942;28;20052;-34
2023/08/17 05:33:16;;;;;;;2.63;0.80;;;16.60;99.90;;;;;;5065427;28;20054;-34
2023/08/17 05:35:42;;;;;;;4.45;1.05;;;16.60;99.90;;;;;;5067124;28;20052;-34
2023/08/17 05:38:09;;;;;;;2.38;0.98;;;16.70;99.90;;;;;;5054936;28;20556;-34
2023/08/17 05:40:35;;;;;;;4.68;0.93;;;16.70;99.90;;;;;;5067936;28;20132;-34
2023/08/17 05:43:01;;;;;;;6.85;1.00;;;16.70;99.90;;;;;;5066908;28;20489;-34
2023/08/17 05:45:27;;;;;;;2.83;0.93;;;16.80;99.90;;;;;;5068450;28;20048;-34
2023/08/17 05:47:53;;;;;;;4.60;1.23;;;16.90;99.90;;;;;;5064988;28;20048;-34
2023/08/17 05:50:18;;;;;;;3.55;1.05;;;16.90;99.90;;;;;;5065361;28;20048;-34
2023/08/17 05:52:44;;;;;;;3.70;0.93;;;17.00;99.90;;;;;;5056098;28;20166;-34
2023/08/17 05:55:10;;;;;;;2.55;0.70;;;17.00;99.90;;;;;;5052993;28;20482;-34
2023/08/17 05:57:35;;;;;;;2.70;0.90;;;17.00;99.90;;;;;;5059071;28;20475;-34
2023/08/17 06:00:02;;;;;;;1.85;0.60;;;17.10;99.90;;;;;;5059596;28;20075;-34
2023/08/17 06:02:28;;;;;;;2.67;1.30;;;17.20;99.90;;;;;;5080082;28;20131;-34
2023/08/17 06:04:53;;;;;;;3.10;0.70;;;17.20;99.90;;;;;;5067705;28;20143;-34
2023/08/17 06:07:19;;;;;;;3.67;0.80;;;17.30;99.90;;;;;;5066628;28;20066;-34
2023/08/17 06:09:45;;;;;;;2.05;0.90;;;17.30;99.90;;;;;;5047251;28;20076;-34
2023/08/17 06:12:11;;;;;;;3.03;1.30;;;17.30;99.90;;;;;;5066976;28;20051;-33
2023/08/17 06:14:36;;;;;;;2.08;0.63;;;17.20;99.90;;;;;;5064498;28;20181;-34
2023/08/17 06:17:02;;;;;;;2.47;0.88;;;17.20;99.90;;;;;;5061007;28;20495;-34
2023/08/17 06:19:28;;;;;;;5.28;0.88;;;17.20;99.90;;;;;;5061763;28;20063;-34
2023/08/17 06:21:54;;;;;;;3.40;1.10;;;17.20;99.90;;;;;;5064717;28;20512;-34
2023/08/17 06:24:19;;;;;;;3.15;0.80;;;17.20;99.90;;;;;;5066545;28;20036;-34
2023/08/17 06:26:45;;;;;;;3.83;1.10;;;17.20;99.90;;;;;;5059882;28;20495;-34
2023/08/17 06:29:11;;;;;;;2.47;1.00;;;17.20;99.90;;;;;;5062515;28;20044;-34
2023/08/17 06:31:37;;;;;;;2.97;0.70;;;17.20;99.90;;;;;;5056053;28;20409;-34
2023/08/17 06:34:03;;;;;;;3.85;1.00;;;17.30;99.90;;;;;;5060488;28;20097;-34
2023/08/17 06:36:32;;;;;;;3.60;0.70;;;17.20;99.90;;;;;;5055408;28;20048;-34
2023/08/17 06:38:58;;;;;;;1.77;0.63;;;17.30;99.90;;;;;;5064842;28;20135;-34
2023/08/17 06:41:24;;;;;;;4.22;0.95;;;17.30;99.90;;;;;;5052794;28;20417;-34
2023/08/17 06:43:51;;;;;;;4.03;0.73;;;17.30;99.90;;;;;;5064691;28;20059;-34
2023/08/17 06:46:17;;;;;;;3.65;1.02;;;17.40;99.90;;;;;;5044469;28;20187;-34
2023/08/17 06:48:43;;;;;;;1.92;0.70;;;17.50;99.90;;;;;;5057162;28;20140;-34
2023/08/17 06:51:09;;;;;;;3.55;0.70;;;17.50;99.90;;;;;;5048979;28;20061;-34
2023/08/17 06:53:35;;;;;;;5.03;0.80;;;17.60;99.90;;;;;;5061440;28;20063;-34
2023/08/17 06:56:01;;;;;;;3.53;0.60;;;17.70;99.90;;;;;;5060854;28;20048;-34
2023/08/17 06:58:26;;;;;;;5.78;0.70;;;17.70;99.90;;;;;;5057334;28;20091;-34
2023/08/17 07:00:52;;;;;;;3.47;0.80;;;17.70;99.90;;;;;;5062968;28;20048;-34
2023/08/17 07:03:18;;;;;;;2.03;0.70;;;17.70;99.90;;;;;;5060073;28;20492;-34
2023/08/17 07:05:44;;;;;;;2.95;0.55;;;17.70;99.90;;;;;;5048221;28;20489;-34
2023/08/17 07:08:10;;;;;;;3.70;1.08;;;17.70;99.90;;;;;;5060929;28;20050;-34
2023/08/17 07:10:36;;;;;;;3.58;0.68;;;17.70;99.90;;;;;;5059820;28;20540;-34
2023/08/17 07:13:03;;;;;;;5.43;0.85;;;17.80;99.90;;;;;;5062241;28;20456;-34
2023/08/17 07:15:32;;;;;;;5.28;1.02;;;17.80;99.90;;;;;;5063291;28;20079;-34
2023/08/17 07:17:57;;;;;;;2.20;0.60;;;17.80;99.90;;;;;;5063543;28;20045;-33
2023/08/17 07:20:23;;;;;;;1.63;0.60;;;17.90;99.90;;;;;;5059395;28;20604;-34
2023/08/17 07:22:49;;;;;;;3.80;0.68;;;18.00;99.90;;;;;;5045502;28;20049;-34
2023/08/17 07:25:15;;;;;;;3.17;0.70;;;18.10;99.90;;;;;;5051672;28;20059;-34
2023/08/17 07:27:42;;;;;;;4.38;1.17;;;18.20;99.90;;;;;;5054404;28;20498;-34
2023/08/17 07:30:08;;;;;;;3.42;0.80;;;18.30;99.90;;;;;;5061597;28;20036;-34
2023/08/17 07:32:34;;;;;;;4.43;0.70;;;18.40;99.90;;;;;;5057755;28;20185;-34
2023/08/17 07:35:03;;;;;;;2.50;0.60;;;18.50;99.90;;;;;;5050269;28;20049;-34
2023/08/17 07:37:32;;;;;;;4.03;0.80;;;18.60;99.90;;;;;;5055374;28;20097;-34
2023/08/17 07:39:59;;;;;;;2.00;0.57;;;18.70;99.90;;;;;;5053679;28;20167;-34
2023/08/17 07:42:24;;;;;;;2.15;0.63;;;18.70;99.90;;;;;;5062263;28;20680;-34
2023/08/17 07:44:50;;;;;;;4.50;0.70;;;18.80;99.90;;;;;;5058713;28;20048;-34
2023/08/17 07:47:16;;;;;;;5.13;1.13;;;18.80;99.90;;;;;;5057659;28;20048;-35
2023/08/17 07:49:41;;;;;;;1.70;0.50;;;18.80;99.90;;;;;;5059660;28;20056;-34
2023/08/17 07:52:07;;;;;;;4.80;0.75;;;18.80;99.90;;;;;;5065143;28;20472;-34
2023/08/17 07:54:33;;;;;;;3.97;0.65;;;18.80;99.90;;;;;;5060566;28;20472;-34
2023/08/17 07:56:59;;;;;;;7.25;0.80;;;18.80;99.90;;;;;;5061031;28;20055;-34
2023/08/17 07:59:25;;;;;;;2.60;0.65;;;18.80;99.90;;;;;;5056303;28;20044;-34
2023/08/17 08:01:50;;;;;;;3.47;0.70;;;18.80;99.90;;;;;;5053367;28;20053;-35
2023/08/17 08:04:16;;;;;;;1.75;0.77;;;18.80;99.90;;;;;;5051820;28;20044;-34
2023/08/17 08:06:42;;;;;;;4.10;0.90;;;18.80;99.90;;;;;;5057502;28;20060;-34
2023/08/17 08:09:08;;;;;;;3.08;0.60;;;18.80;99.90;;;;;;5059319;28;20170;-34
2023/08/17 08:11:33;;;;;;;1.65;0.50;;;18.80;99.90;;;;;;5057613;28;20056;-34
2023/08/17 08:13:59;;;;;;;3.10;0.63;;;18.80;99.90;;;;;;5053602;28;20059;-34
2023/08/17 08:16:26;;;;;;;1.60;0.50;;;18.90;99.90;;;;;;5050843;28;20230;-34
2023/08/17 08:18:52;;;;;;;2.08;0.70;;;18.90;99.90;;;;;;5057860;28;20067;-34
2023/08/17 08:21:18;;;;;;;4.78;0.70;;;18.90;99.90;;;;;;5061262;28;20060;-34
2023/08/17 08:23:43;;;;;;;1.83;0.50;;;19.00;99.90;;;;;;5051890;28;20496;-34
2023/08/17 08:26:09;;;;;;;3.78;0.60;;;19.00;99.90;;;;;;5057906;28;20060;-34
2023/08/17 08:28:35;;;;;;;1.58;0.45;;;19.10;99.90;;;;;;5049479;28;20515;-34
2023/08/17 08:31:04;;;;;;;2.40;0.57;;;19.20;99.90;;;;;;5055525;28;20052;-35
2023/08/17 08:33:30;;;;;;;2.85;0.50;;;19.30;99.90;;;;;;5054277;28;20520;-34
2023/08/17 08:35:56;;;;;;;2.13;0.60;;;19.30;99.90;;;;;;5056403;28;20052;-34
2023/08/17 08:38:21;;;;;;;3.75;1.27;;;19.30;99.90;;;;;;5063757;28;20521;-34
2023/08/17 08:40:48;;;;;;;2.05;0.50;;;19.40;99.90;;;;;;5050964;28;20403;-34
2023/08/17 08:43:14;;;;;;;2.22;0.50;;;19.40;99.90;;;;;;5060269;28;20048;-34
2023/08/17 08:45:44;;;;;;;2.15;0.50;;;19.50;99.90;;;;;;5059247;28;20077;-34
2023/08/17 08:48:11;;;;;;;2.80;0.60;;;19.60;99.90;;;;;;5059109;28;21542;-34
2023/08/17 08:50:40;;;;;;;2.28;0.63;;;19.70;99.90;;;;;;5048609;28;20123;-34
2023/08/17 08:53:13;;;;;;;1.60;0.50;;;19.90;99.90;;;;;;5061314;28;20075;-34
2023/08/17 08:55:57;;;;;;;2.10;0.60;;;20.00;99.90;;;;;;5056639;28;20080;-34
2023/08/17 08:58:25;;;;;;;1.45;0.63;;;20.10;99.90;;;;;;5057784;28;20149;-34
2023/08/17 09:00:52;;;;;;;1.73;0.50;;;20.20;99.90;;;;;;5058895;28;20517;-34
2023/08/17 09:03:20;;;;;;;3.05;0.60;;;20.30;99.90;;;;;;5060621;28;20083;-34
2023/08/17 09:05:48;;;;;;;3.40;0.50;;;20.30;99.90;;;;;;5053062;28;20052;-34
2023/08/17 09:08:15;;;;;;;1.52;0.50;;;20.40;99.90;;;;;;5048937;28;20072;-34
2023/08/17 09:10:42;;;;;;;1.42;0.50;;;20.40;99.90;;;;;;5054512;28;20044;-34
2023/08/17 09:13:08;;;;;;;1.23;0.52;;;20.60;99.90;;;;;;5057286;28;20048;-34
2023/08/17 09:15:34;;;;;;;4.20;0.70;;;20.70;99.90;;;;;;5054308;28;20762;-34
2023/08/17 09:18:00;;;;;;;1.60;0.60;;;20.80;99.90;;;;;;5053535;28;20502;-34
2023/08/17 09:20:39;;;;;;;1.85;0.50;;;20.90;99.90;;;;;;5058750;28;20049;-34
2023/08/17 09:23:12;;;;;;;2.50;0.70;;;21.00;99.90;;;;;;5056750;28;20086;-34
2023/08/17 09:25:40;;;;;;;2.35;0.93;;;21.00;99.90;;;;;;5053206;28;20110;-34
2023/08/17 09:28:11;;;;;;;3.05;0.65;;;21.00;99.90;;;;;;5056970;28;20052;-34
2023/08/17 09:30:59;;;;;;;2.63;0.47;;;20.90;99.90;;;;;;5053355;28;20472;-34
2023/08/17 09:33:30;;;;;;;1.40;0.50;;;20.80;99.90;;;;;;5061516;28;20074;-34
2023/08/17 09:35:57;;;;;;;2.08;0.55;;;20.70;99.90;;;;;;5058947;28;20049;-34
2023/08/17 09:38:23;;;;;;;3.08;0.60;;;20.60;99.90;;;;;;5062424;28;20394;-33
2023/08/17 09:40:49;;;;;;;2.63;0.57;;;20.60;99.90;;;;;;5062182;28;20052;-34
2023/08/17 09:43:16;;;;;;;1.45;0.50;;;20.60;99.90;;;;;;5060552;28;20468;-34
2023/08/17 09:45:48;;;;;;;2.22;0.70;;;20.60;99.90;;;;;;5059677;28;20084;-34
2023/08/17 09:48:17;;;;;;;2.50;0.50;;;20.60;99.90;;;;;;5051422;28;20064;-34
2023/08/17 09:50:43;;;;;;;2.15;0.70;;;20.70;99.90;;;;;;5054223;28;20048;-34
2023/08/17 09:53:19;;;;;;;3.13;0.70;;;20.80;99.90;;;;;;5044199;28;20048;-34
2023/08/17 09:55:45;;;;;;;4.68;0.90;;;21.00;99.90;;;;;;5046321;28;20105;-34
2023/08/17 09:58:17;;;;;;;1.65;0.47;;;21.10;99.90;;;;;;5062617;28;20532;-34
2023/08/17 10:00:49;;;;;;;3.03;0.50;;;21.20;99.90;;;;;;5056939;28;20049;-34
2023/08/17 10:03:15;;;;;;;1.92;0.45;;;21.30;99.90;;;;;;5053856;28;20576;-34
2023/08/17 10:05:43;;;;;;;2.38;0.73;;;21.40;99.90;;;;;;5058200;28;20059;-34
2023/08/17 10:08:11;;;;;;;1.67;0.60;;;21.40;99.90;;;;;;5063525;28;20051;-34
2023/08/17 10:10:44;;;;;;;3.17;0.55;;;21.50;99.90;;;;;;5061124;28;20056;-34
2023/08/17 10:13:14;;;;;;;2.25;0.80;;;21.50;99.90;;;;;;5057361;28;20051;-34
2023/08/17 10:16:01;;;;;;;1.23;0.50;;;21.40;99.90;;;;;;5060373;28;20585;-34
2023/08/17 10:18:50;;;;;;;3.55;0.70;;;21.40;99.90;;;;;;5064232;28;20401;-35
2023/08/17 10:21:27;;;;;;;1.85;0.82;;;21.30;99.90;;;;;;5064074;28;20044;-34
2023/08/17 10:23:55;;;;;;;5.07;0.70;;;21.20;99.90;;;;;;5062646;28;20057;-34
2023/08/17 10:26:21;;;;;;;2.08;0.50;;;21.10;99.90;;;;;;5054358;28;20071;-34
2023/08/17 10:28:48;;;;;;;3.05;0.50;;;21.00;99.90;;;;;;5059070;28;20071;-34
2023/08/17 10:31:14;;;;;;;1.33;0.50;;;20.90;99.90;;;;;;5056889;28;20049;-34
2023/08/17 10:33:43;;;;;;;4.57;0.93;;;20.90;99.90;;;;;;5060439;28;20048;-34
2023/08/17 10:36:09;;;;;;;2.70;0.60;;;20.80;99.90;;;;;;5059850;28;20484;-34
2023/08/17 10:38:35;;;;;;;2.40;0.60;;;20.80;99.90;;;;;;5048127;28;20057;-34
2023/08/17 10:41:14;;;;;;;2.03;0.60;;;20.80;99.90;;;;;;5061162;28;20102;-34
2023/08/17 10:43:59;;;;;;;2.85;0.70;;;20.80;99.90;;;;;;5056314;28;20140;-34
2023/08/17 10:46:46;;;;;;;2.05;0.70;;;20.90;99.90;;;;;;5048295;28;20079;-34
2023/08/17 10:49:25;;;;;;;3.75;1.25;;;20.90;99.90;;;;;;5076835;28;20044;-35
2023/08/17 10:52:06;;;;;;;2.92;0.88;;;20.90;99.90;;;;;;5055441;28;20090;-35
2023/08/17 10:54:42;;;;;;;2.67;0.70;;;21.00;99.90;;;;;;5049740;28;20521;-34
2023/08/17 10:57:40;;;;;;;1.95;0.70;;;21.10;99.90;;;;;;5064115;28;20067;-34
2023/08/17 11:00:31;;;;;;;3.35;0.52;;;21.30;99.90;;;;;;5052045;28;20067;-35
2023/08/17 11:03:02;;;;;;;2.58;0.63;;;21.40;99.90;;;;;;5065711;28;20135;-34
2023/08/17 11:05:55;;;;;;;1.85;0.68;;;21.40;99.90;;;;;;5061915;28;20053;-34
2023/08/17 11:08:24;;;;;;;;;;;21.50;99.90;;;;;;5064429;28;20052;-34
2023/08/17 11:11:03;;;;;;;2.72;0.82;;;21.40;99.90;;;;;;5063740;28;19963;-34
2023/08/17 11:13:31;;;;;;;1.63;0.70;;;21.40;99.90;;;;;;5052143;28;20141;-34
2023/08/17 11:15:58;;;;;;;2.30;0.63;;;21.50;99.90;;;;;;5059849;28;20052;-35
2023/08/17 11:18:24;;;;;;;2.38;0.80;;;21.50;99.90;;;;;;5063554;28;20143;-34
2023/08/17 11:20:50;;;;;;;3.83;1.10;;;21.50;99.90;;;;;;5067201;28;20209;-35
2023/08/17 11:23:16;;;;;;;1.33;0.70;;;21.50;99.90;;;;;;5062863;28;20047;-35
2023/08/17 11:25:42;;;;;;;3.17;1.08;;;21.50;99.90;;;;;;5066042;28;20048;-34
2023/08/17 11:28:09;;;;;;;2.53;1.20;;;21.50;99.90;;;;;;5059500;28;20063;-34
2023/08/17 11:30:38;;;;;;;3.08;0.80;;;21.50;99.90;;;;;;5053273;28;20045;-34
2023/08/17 11:33:05;;;;;;;1.90;0.60;;;21.50;99.90;;;;;;5063383;28;20471;-34
2023/08/17 11:35:31;;;;;;;4.60;0.90;;;21.50;99.90;;;;;;5054117;28;20382;-35
2023/08/17 11:37:57;;;;;;;4.72;1.40;;;21.50;99.90;;;;;;5051551;28;20090;-34
2023/08/17 11:40:23;;;;;;;3.72;0.70;;;21.50;99.90;;;;;;5053130;28;20048;-34
2023/08/17 11:42:49;;;;;;;2.28;0.88;;;21.50;99.90;;;;;;5056341;28;20052;-35
2023/08/17 11:45:15;;;;;;;2.55;0.98;;;21.50;99.90;;;;;;5052971;28;20056;-34
2023/08/17 11:47:43;;;;;;;2.78;0.82;;;21.50;99.90;;;;;;5059977;28;20067;-35
2023/08/17 11:50:10;;;;;;;3.08;1.20;;;21.50;99.90;;;;;;5063504;28;20049;-34
2023/08/17 11:52:36;;;;;;;2.53;0.70;;;21.50;99.90;;;;;;5055375;28;20048;-35
2023/08/17 11:55:06;;;;;;;4.93;1.08;;;21.60;99.90;;;;;;5064799;28;20040;-35
2023/08/17 11:57:33;;;;;;;1.98;0.70;;;21.70;99.90;;;;;;5062683;28;20057;-35
2023/08/17 12:00:00;;;;;;;3.45;0.77;;;21.80;99.90;;;;;;5062197;28;20048;-35
2023/08/17 12:02:27;;;;;;;1.63;1.17;;;21.90;99.90;;;;;;5050230;28;20044;-35
2023/08/17 12:04:54;;;;;;;3.28;0.95;;;21.90;99.90;;;;;;5067179;28;20118;-35
2023/08/17 12:07:24;;;;;;;4.05;1.23;;;22.00;99.90;;;;;;5065482;28;20774;-34
2023/08/17 12:09:51;;;;;;;3.15;1.10;;;22.00;99.90;;;;;;5064448;28;20546;-34
2023/08/17 12:12:22;;;;;;;1.63;0.80;;;22.10;99.90;;;;;;5061864;28;20044;-34
2023/08/17 12:14:48;;;;;;;3.05;0.93;;;22.10;99.90;;;;;;5061521;28;20418;-34
2023/08/17 12:17:18;;;;;;;3.95;1.70;;;22.00;99.90;;;;;;5065979;28;20041;-35
2023/08/17 12:19:48;;;;;;;3.22;1.00;;;21.90;99.90;;;;;;5051943;28;20049;-34
2023/08/17 12:22:14;;;;;;;1.77;0.73;;;21.80;99.90;;;;;;5059805;28;20055;-35
2023/08/17 12:24:40;;;;;;;2.35;0.90;;;21.80;99.90;;;;;;5066876;28;20044;-34
2023/08/17 12:27:06;;;;;;;7.30;1.50;;;21.70;99.90;;;;;;5063093;28;20048;-35
2023/08/17 12:29:32;;;;;;;2.17;0.75;;;21.80;99.90;;;;;;5050269;28;20079;-35
2023/08/17 12:31:59;;;;;;;3.42;1.20;;;21.80;99.90;;;;;;5060714;28;20106;-35
2023/08/17 12:34:25;;;;;;;4.03;1.40;;;21.90;99.90;;;;;;5062698;28;20097;-35
2023/08/17 12:36:50;;;;;;;2.97;1.15;;;22.00;99.90;;;;;;5046947;28;20439;-35
2023/08/17 12:39:16;;;;;;;1.75;0.98;;;22.00;99.90;;;;;;5054555;28;20056;-35
2023/08/17 12:41:42;;;;;;;2.08;1.10;;;22.00;99.90;;;;;;5063234;28;20052;-35
2023/08/17 12:44:14;;;;;;;2.38;1.20;;;22.00;99.90;;;;;;5043320;28;20471;-35
2023/08/17 12:46:40;;;;;;;3.88;1.45;;;22.00;99.90;;;;;;5059832;28;20060;-35
2023/08/17 12:49:06;;;;;;;5.65;1.38;;;22.00;99.90;;;;;;5062781;28;20075;-35